Time,TemperatureF,DewpointF,PressureIn,WindDirection,WindDirectionDegrees,WindSpeedMPH,WindSpeedGustMPH,Humidity,HourlyPrecipIn,Conditions,Clouds,dailyrainin,SoftwareType,DateUTC
2013-06-19 00:08:00,53.5,52.0,29.92,WNW,300,0.0,0.0,94,0.00,,,0.04,weatherlink.com 1.10,2013-06-19 04:08:00,
2013-06-19 00:22:00,53.0,52.0,29.92,WNW,300,0.0,0.0,95,0.00,,,0.00,weatherlink.com 1.10,2013-06-19 04:22:00,
2013-06-19 00:37:00,52.4,51.0,29.92,WNW,300,0.0,0.0,94,0.00,,,0.00,weatherlink.com 1.10,2013-06-19 04:37:00,
2013-06-19 00:52:00,51.9,51.0,29.92,WNW,300,0.0,0.0,95,0.00,,,0.00,weatherlink.com 1.10,2013-06-19 04:52:00,
2013-06-19 01:07:00,51.6,50.0,29.93,WNW,300,0.0,0.0,95,0.00,,,0.00,weatherlink.com 1.10,2013-06-19 05:07:00,
2013-06-19 01:23:00,51.2,50.0,29.93,WNW,300,0.0,0.0,95,0.00,,,0.00,weatherlink.com 1.10,2013-06-19 05:23:00,
2013-06-19 01:37:00,50.7,49.0,29.93,WNW,300,0.0,0.0,95,0.00,,,0.00,weatherlink.com 1.10,2013-06-19 05:37:00,
2013-06-19 01:52:00,50.1,49.0,29.93,WNW,300,0.0,0.0,95,0.00,,,0.00,weatherlink.com 1.10,2013-06-19 05:52:00,
2013-06-19 02:07:00,49.6,48.0,29.93,WNW,300,0.0,0.0,95,0.00,,,0.00,weatherlink.com 1.10,2013-06-19 06:07:00,
2013-06-19 02:23:00,48.9,48.0,29.93,WNW,300,0.0,0.0,95,0.00,,,0.00,weatherlink.com 1.10,2013-06-19 06:23:00,
2013-06-19 02:38:00,48.5,47.0,29.93,WNW,300,0.0,0.0,95,0.00,,,0.00,weatherlink.com 1.10,2013-06-19 06:38:00,
2013-06-19 02:54:00,48.1,47.0,29.93,WNW,300,0.0,0.0,95,0.00,,,0.00,weatherlink.com 1.10,2013-06-19 06:54:00,
2013-06-19 03:08:00,47.8,47.0,29.93,WNW,300,0.0,0.0,95,0.00,,,0.00,weatherlink.com 1.10,2013-06-19 07:08:00,
2013-06-19 03:23:00,47.6,47.0,29.93,WNW,300,0.0,0.0,96,0.00,,,0.00,weatherlink.com 1.10,2013-06-19 07:23:00,
2013-06-19 03:38:00,47.3,46.0,29.93,WNW,300,0.0,0.0,96,0.00,,,0.00,weatherlink.com 1.10,2013-06-19 07:38:00,
2013-06-19 03:53:00,46.9,46.0,29.93,WNW,300,0.0,0.0,96,0.00,,,0.00,weatherlink.com 1.10,2013-06-19 07:53:00,
2013-06-19 04:08:00,46.6,46.0,29.93,WNW,300,0.0,0.0,96,0.00,,,0.00,weatherlink.com 1.10,2013-06-19 08:08:00,
2013-06-19 04:23:00,46.3,45.0,29.94,WNW,300,0.0,0.0,96,0.00,,,0.00,weatherlink.com 1.10,2013-06-19 08:23:00,
2013-06-19 04:38:00,46.1,45.0,29.94,WNW,300,0.0,0.0,96,0.00,,,0.00,weatherlink.com 1.10,2013-06-19 08:38:00,
2013-06-19 04:53:00,45.8,45.0,29.94,WNW,300,0.0,0.0,96,0.00,,,0.00,weatherlink.com 1.10,2013-06-19 08:53:00,
2013-06-19 05:08:00,45.6,45.0,29.95,WNW,300,0.0,0.0,96,0.00,,,0.00,weatherlink.com 1.10,2013-06-19 09:08:00,
2013-06-19 05:23:00,45.4,44.0,29.95,WNW,300,0.0,0.0,96,0.00,,,0.00,weatherlink.com 1.10,2013-06-19 09:23:00,
2013-06-19 05:38:00,45.1,44.0,29.95,WNW,300,0.0,0.0,96,0.00,,,0.00,weatherlink.com 1.10,2013-06-19 09:38:00,
2013-06-19 05:53:00,45.2,44.0,29.96,WNW,300,0.0,0.0,96,0.00,,,0.00,weatherlink.com 1.10,2013-06-19 09:53:00,
2013-06-19 06:08:00,45.8,45.0,29.96,WNW,300,0.0,0.0,97,0.00,,,0.00,weatherlink.com 1.10,2013-06-19 10:08:00,
2013-06-19 06:23:00,46.0,45.0,29.96,WNW,300,0.0,0.0,97,0.00,,,0.00,weatherlink.com 1.10,2013-06-19 10:23:00,
2013-06-19 06:38:00,46.5,46.0,29.96,WNW,300,0.0,0.0,97,0.00,,,0.00,weatherlink.com 1.10,2013-06-19 10:38:00,
2013-06-19 06:53:00,48.2,47.0,29.96,North,355,0.0,0.0,97,0.00,,,0.00,weatherlink.com 1.10,2013-06-19 10:53:00,
2013-06-19 07:08:00,49.4,49.0,29.96,North,355,0.0,0.0,97,0.00,,,0.00,weatherlink.com 1.10,2013-06-19 11:08:00,
2013-06-19 07:23:00,50.4,50.0,29.96,NNE,30,0.0,0.0,97,0.00,,,0.00,weatherlink.com 1.10,2013-06-19 11:23:00,
2013-06-19 07:38:00,51.5,50.0,29.97,NNE,30,0.0,0.0,95,0.00,,,0.00,weatherlink.com 1.10,2013-06-19 11:38:00,
2013-06-19 07:53:00,52.6,50.0,29.97,NNE,30,0.0,0.0,89,0.00,,,0.00,weatherlink.com 1.10,2013-06-19 11:53:00,
2013-06-19 08:08:00,54.4,50.0,29.97,NNE,30,0.0,1.0,86,0.00,,,0.00,weatherlink.com 1.10,2013-06-19 12:08:00,
2013-06-19 08:23:00,55.4,51.0,29.98,NNE,30,0.0,0.0,84,0.00,,,0.00,weatherlink.com 1.10,2013-06-19 12:23:00,
2013-06-19 08:38:00,56.7,51.0,29.98,NE,34,0.0,0.0,81,0.00,,,0.00,weatherlink.com 1.10,2013-06-19 12:38:00,
2013-06-19 08:53:00,58.8,50.0,29.98,NNE,27,0.0,4.0,73,0.00,,,0.00,weatherlink.com 1.10,2013-06-19 12:53:00,
2013-06-19 09:08:00,60.7,50.0,29.98,NNE,22,0.0,6.0,68,0.00,,,0.00,weatherlink.com 1.10,2013-06-19 13:08:00,
2013-06-19 09:24:00,61.9,49.0,29.98,North,5,0.0,3.0,64,0.00,,,0.00,weatherlink.com 1.10,2013-06-19 13:24:00,
2013-06-19 09:39:00,62.5,49.0,29.98,NNW,331,0.0,6.0,62,0.00,,,0.00,weatherlink.com 1.10,2013-06-19 13:39:00,
2013-06-19 09:54:00,63.1,49.0,29.98,NNE,26,0.0,5.0,61,0.00,,,0.00,weatherlink.com 1.10,2013-06-19 13:54:00,
2013-06-19 10:09:00,64.3,46.0,29.98,NNE,28,0.0,11.0,52,0.00,,,0.00,weatherlink.com 1.10,2013-06-19 14:09:00,
2013-06-19 10:24:00,64.8,42.0,29.99,NE,52,9.0,13.0,44,0.00,,,0.00,weatherlink.com 1.10,2013-06-19 14:24:00,
2013-06-19 10:39:00,65.1,44.0,29.99,NNE,24,1.0,8.0,46,0.00,,,0.00,weatherlink.com 1.10,2013-06-19 14:39:00,
2013-06-19 10:54:00,65.6,44.0,30.00,NE,35,3.0,12.0,45,0.00,,,0.00,weatherlink.com 1.10,2013-06-19 14:54:00,
2013-06-19 11:09:00,65.6,42.0,30.00,NE,42,7.0,14.0,42,0.00,,,0.00,weatherlink.com 1.10,2013-06-19 15:09:00,
2013-06-19 11:24:00,66.0,46.0,30.00,North,349,3.0,10.0,48,0.00,,,0.00,weatherlink.com 1.10,2013-06-19 15:24:00,
2013-06-19 11:39:00,66.4,43.0,30.00,NE,34,0.0,10.0,43,0.00,,,0.00,weatherlink.com 1.10,2013-06-19 15:39:00,
2013-06-19 11:54:00,67.1,43.0,30.00,NNE,19,1.0,6.0,42,0.00,,,0.00,weatherlink.com 1.10,2013-06-19 15:54:00,
2013-06-19 12:09:00,67.2,43.0,30.00,ENE,58,0.0,11.0,42,0.00,,,0.00,weatherlink.com 1.10,2013-06-19 16:09:00,
2013-06-19 12:24:00,68.0,43.0,30.00,NNE,29,2.0,9.0,40,0.00,,,0.00,weatherlink.com 1.10,2013-06-19 16:24:00,
2013-06-19 12:39:00,68.9,42.0,30.00,NNE,22,1.0,8.0,38,0.00,,,0.00,weatherlink.com 1.10,2013-06-19 16:39:00,
2013-06-19 12:54:00,69.0,45.0,29.99,NNW,340,1.0,9.0,42,0.00,,,0.00,weatherlink.com 1.10,2013-06-19 16:54:00,
2013-06-19 13:09:00,70.1,44.0,29.99,NNE,20,0.0,4.0,39,0.00,,,0.00,weatherlink.com 1.10,2013-06-19 17:09:00,
2013-06-19 13:24:00,70.3,42.0,29.99,NNE,13,1.0,4.0,36,0.00,,,0.00,weatherlink.com 1.10,2013-06-19 17:24:00,
2013-06-19 13:39:00,70.7,43.0,29.99,North,360,2.0,8.0,37,0.00,,,0.00,weatherlink.com 1.10,2013-06-19 17:39:00,
2013-06-19 13:54:00,71.2,42.0,29.98,NE,44,0.0,6.0,35,0.00,,,0.00,weatherlink.com 1.10,2013-06-19 17:54:00,
2013-06-19 14:09:00,73.0,42.0,29.98,NW,309,0.0,4.0,33,0.00,,,0.00,weatherlink.com 1.10,2013-06-19 18:09:00,
2013-06-19 14:24:00,72.7,42.0,29.98,NE,36,1.0,5.0,33,0.00,,,0.00,weatherlink.com 1.10,2013-06-19 18:24:00,
2013-06-19 14:39:00,72.6,45.0,29.98,North,355,2.0,9.0,38,0.00,,,0.00,weatherlink.com 1.10,2013-06-19 18:39:00,
2013-06-19 14:54:00,72.9,41.0,29.98,NE,55,1.0,6.0,32,0.00,,,0.00,weatherlink.com 1.10,2013-06-19 18:54:00,
2013-06-19 15:09:00,73.0,41.0,29.98,NE,44,0.0,10.0,31,0.00,,,0.00,weatherlink.com 1.10,2013-06-19 19:09:00,
2013-06-19 15:24:00,73.7,41.0,29.98,North,355,0.0,9.0,31,0.00,,,0.00,weatherlink.com 1.10,2013-06-19 19:24:00,
2013-06-19 15:40:00,73.7,41.0,29.99,NNE,19,1.0,8.0,31,0.00,,,0.00,weatherlink.com 1.10,2013-06-19 19:40:00,
2013-06-19 15:54:00,73.3,42.0,29.99,NE,45,0.0,9.0,32,0.00,,,0.00,weatherlink.com 1.10,2013-06-19 19:54:00,
2013-06-19 16:09:00,72.8,41.0,29.99,North,355,3.0,5.0,32,0.00,,,0.00,weatherlink.com 1.10,2013-06-19 20:09:00,
2013-06-19 16:25:00,72.7,40.0,30.00,WNW,285,0.0,9.0,31,0.00,,,0.00,weatherlink.com 1.10,2013-06-19 20:25:00,
2013-06-19 16:39:00,73.4,41.0,30.00,NE,35,3.0,9.0,31,0.00,,,0.00,weatherlink.com 1.10,2013-06-19 20:39:00,
2013-06-19 16:54:00,72.7,42.0,30.00,NE,34,2.0,7.0,33,0.00,,,0.00,weatherlink.com 1.10,2013-06-19 20:54:00,
2013-06-19 17:10:00,71.6,44.0,30.00,NNE,19,2.0,3.0,37,0.00,,,0.00,weatherlink.com 1.10,2013-06-19 21:10:00,
2013-06-19 17:25:00,71.5,43.0,30.00,NE,39,3.0,6.0,36,0.00,,,0.00,weatherlink.com 1.10,2013-06-19 21:25:00,
2013-06-19 17:40:00,71.7,41.0,29.99,North,355,0.0,9.0,33,0.00,,,0.00,weatherlink.com 1.10,2013-06-19 21:40:00,
2013-06-19 17:55:00,71.0,44.0,30.00,NNE,26,0.0,5.0,38,0.00,,,0.00,weatherlink.com 1.10,2013-06-19 21:55:00,
2013-06-19 18:10:00,70.9,42.0,30.01,NNE,13,0.0,6.0,35,0.00,,,0.00,weatherlink.com 1.10,2013-06-19 22:10:00,
2013-06-19 18:25:00,70.8,44.0,30.01,NNE,24,0.0,2.0,38,0.00,,,0.00,weatherlink.com 1.10,2013-06-19 22:25:00,
2013-06-19 18:40:00,70.6,45.0,30.02,NNE,24,0.0,0.0,40,0.00,,,0.00,weatherlink.com 1.10,2013-06-19 22:40:00,
2013-06-19 18:55:00,70.2,43.0,30.02,NNE,31,2.0,10.0,38,0.00,,,0.00,weatherlink.com 1.10,2013-06-19 22:55:00,
2013-06-19 19:10:00,69.3,42.0,30.02,North,10,0.0,3.0,38,0.00,,,0.00,weatherlink.com 1.10,2013-06-19 23:10:00,
2013-06-19 19:25:00,68.8,43.0,30.03,NNE,13,0.0,2.0,40,0.00,,,0.00,weatherlink.com 1.10,2013-06-19 23:25:00,
2013-06-19 19:40:00,68.0,43.0,30.04,NNE,24,0.0,3.0,41,0.00,,,0.00,weatherlink.com 1.10,2013-06-19 23:40:00,
2013-06-19 19:55:00,67.2,46.0,30.04,NE,34,0.0,0.0,46,0.00,,,0.00,weatherlink.com 1.10,2013-06-19 23:55:00,
2013-06-19 20:10:00,65.5,47.0,30.05,NE,34,0.0,0.0,52,0.00,,,0.00,weatherlink.com 1.10,2013-06-20 00:10:00,
2013-06-19 20:25:00,63.0,46.0,30.05,NE,34,0.0,0.0,55,0.00,,,0.00,weatherlink.com 1.10,2013-06-20 00:25:00,
2013-06-19 20:40:00,61.0,46.0,30.06,NE,34,0.0,0.0,58,0.00,,,0.00,weatherlink.com 1.10,2013-06-20 00:40:00,
2013-06-19 20:55:00,59.6,46.0,30.07,NE,34,0.0,0.0,62,0.00,,,0.00,weatherlink.com 1.10,2013-06-20 00:55:00,
2013-06-19 21:10:00,58.7,46.0,30.07,NE,34,0.0,0.0,62,0.00,,,0.00,weatherlink.com 1.10,2013-06-20 01:10:00,
2013-06-19 21:25:00,58.0,46.0,30.09,NE,34,0.0,0.0,65,0.00,,,0.00,weatherlink.com 1.10,2013-06-20 01:25:00,
2013-06-19 21:40:00,57.1,46.0,30.09,NE,34,0.0,0.0,67,0.00,,,0.00,weatherlink.com 1.10,2013-06-20 01:40:00,
2013-06-19 21:55:00,55.9,45.0,30.10,NE,34,0.0,0.0,68,0.00,,,0.00,weatherlink.com 1.10,2013-06-20 01:55:00,
2013-06-19 22:10:00,55.2,46.0,30.11,NE,34,0.0,0.0,71,0.00,,,0.00,weatherlink.com 1.10,2013-06-20 02:10:00,
2013-06-19 22:25:00,54.5,45.0,30.11,NE,34,0.0,0.0,71,0.00,,,0.00,weatherlink.com 1.10,2013-06-20 02:25:00,
2013-06-19 22:40:00,53.8,45.0,30.11,NE,34,0.0,0.0,73,0.00,,,0.00,weatherlink.com 1.10,2013-06-20 02:40:00,
2013-06-19 22:55:00,53.1,46.0,30.12,NE,34,0.0,0.0,76,0.00,,,0.00,weatherlink.com 1.10,2013-06-20 02:55:00,
2013-06-19 23:10:00,52.6,47.0,30.12,NE,34,0.0,0.0,82,0.00,,,0.00,weatherlink.com 1.10,2013-06-20 03:10:00,
2013-06-19 23:25:00,52.0,48.0,30.13,NE,34,0.0,0.0,85,0.00,,,0.00,weatherlink.com 1.10,2013-06-20 03:25:00,
2013-06-19 23:40:00,51.5,48.0,30.13,NE,34,0.0,0.0,86,0.00,,,0.00,weatherlink.com 1.10,2013-06-20 03:40:00,
2013-06-19 23:55:00,51.2,48.0,30.14,NE,34,0.0,0.0,87,0.00,,,0.00,weatherlink.com 1.10,2013-06-20 03:55:00,